createdAt,value
2018-06-21T00:02:19.960Z,76.40
2018-06-21T00:04:47.713Z,76.60
2018-06-21T00:07:16.305Z,76.50
2018-06-21T00:09:44.157Z,76.50
2018-06-21T00:12:12.769Z,76.50
2018-06-21T00:14:41.368Z,76.50
2018-06-21T00:17:10.116Z,76.60
2018-06-21T00:19:38.684Z,76.60
2018-06-21T00:22:06.373Z,76.70
2018-06-21T00:24:34.208Z,76.80
2018-06-21T00:27:02.776Z,76.70
2018-06-21T00:29:30.501Z,76.70
2018-06-21T00:31:58.197Z,76.70
2018-06-21T00:34:26.801Z,76.70
2018-06-21T00:36:54.484Z,76.60
2018-06-21T00:41:50.638Z,76.60
2018-06-21T00:44:19.324Z,76.60
2018-06-21T00:46:47.047Z,76.70
2018-06-21T00:49:14.773Z,76.70
2018-06-21T00:51:43.542Z,76.80
2018-06-21T00:54:11.221Z,76.60
2018-06-21T00:56:38.984Z,76.60
2018-06-21T00:59:06.661Z,76.60
2018-06-21T01:01:34.521Z,76.70
2018-06-21T01:04:03.113Z,76.70
2018-06-21T01:06:30.865Z,76.60
2018-06-21T01:08:58.568Z,76.60
2018-06-21T01:11:26.353Z,76.60
2018-06-21T01:13:54.033Z,76.70
2018-06-21T01:16:22.604Z,76.60
2018-06-21T01:18:50.296Z,76.70
2018-06-21T01:21:18.018Z,76.60
2018-06-21T01:23:45.708Z,76.60
2018-06-21T01:26:13.391Z,76.80
2018-06-21T01:28:41.094Z,76.50
2018-06-21T01:31:08.773Z,76.60
2018-06-21T01:33:36.492Z,76.80
2018-06-21T01:36:04.251Z,76.70
2018-06-21T01:38:31.956Z,76.90
2018-06-21T01:40:59.641Z,76.90
2018-06-21T01:43:27.328Z,76.90
2018-06-21T01:45:55.005Z,77.00
2018-06-21T01:48:22.695Z,76.90
2018-06-21T01:50:50.391Z,77.00
2018-06-21T01:53:18.156Z,77.00
2018-06-21T01:55:45.838Z,77.00
2018-06-21T01:58:13.521Z,77.00
2018-06-21T02:00:41.254Z,77.00
2018-06-21T02:03:08.940Z,77.20
2018-06-21T02:05:36.631Z,76.90
2018-06-21T02:08:04.359Z,76.90
2018-06-21T02:10:32.048Z,77.10
2018-06-21T02:12:59.746Z,77.00
2018-06-21T02:15:27.438Z,77.00
2018-06-21T02:17:55.989Z,77.00
2018-06-21T02:20:24.689Z,77.00
2018-06-21T02:22:53.421Z,76.90
2018-06-21T02:25:21.133Z,76.90
2018-06-21T02:27:48.857Z,76.80
2018-06-21T02:30:17.449Z,77.00
2018-06-21T02:32:46.138Z,76.90
2018-06-21T02:37:42.157Z,77.00
2018-06-21T02:40:09.849Z,76.80
2018-06-21T02:42:38.544Z,77.00
2018-06-21T02:45:07.230Z,76.90
2018-06-21T02:47:36.033Z,76.90
2018-06-21T02:50:04.637Z,76.90
2018-06-21T02:52:33.229Z,76.90
2018-06-21T02:55:02.009Z,76.90
2018-06-21T02:57:30.752Z,76.80
2018-06-21T02:59:59.484Z,76.90
2018-06-21T03:02:28.211Z,76.90
2018-06-21T03:04:55.894Z,76.90
2018-06-21T03:07:24.643Z,77.00
2018-06-21T03:09:53.238Z,77.00
2018-06-21T03:12:21.859Z,77.10
2018-06-21T03:14:51.253Z,77.10
2018-06-21T03:17:19.882Z,77.00
2018-06-21T03:19:47.645Z,77.10
2018-06-21T03:22:15.331Z,77.20
2018-06-21T03:24:43.886Z,77.00
2018-06-21T03:27:12.752Z,77.70
2018-06-21T03:29:41.449Z,77.10
2018-06-21T03:32:10.407Z,77.10
2018-06-21T03:34:39.505Z,77.10
2018-06-21T03:39:35.549Z,77.10
2018-06-21T03:42:04.423Z,77.20
2018-06-21T03:44:33.036Z,76.80
2018-06-21T03:47:01.787Z,77.00
2018-06-21T03:49:30.500Z,77.00
2018-06-21T03:51:58.845Z,77.10
2018-06-21T03:54:27.480Z,77.00
2018-06-21T03:56:55.190Z,77.00
2018-06-21T03:59:22.922Z,76.90
2018-06-21T04:01:50.603Z,77.00
2018-06-21T04:04:19.191Z,76.80
2018-06-21T04:06:47.798Z,76.90
2018-06-21T04:09:16.362Z,76.90
2018-06-21T04:11:44.814Z,76.90
2018-06-21T04:14:12.523Z,76.90
2018-06-21T04:16:40.204Z,76.90
2018-06-21T04:19:07.925Z,76.90
2018-06-21T04:21:35.659Z,77.00
2018-06-21T04:24:04.370Z,76.80
2018-06-21T04:26:32.061Z,76.90
2018-06-21T04:28:59.760Z,76.90
2018-06-21T04:31:27.460Z,76.90
2018-06-21T04:33:56.039Z,76.90
2018-06-21T04:36:23.765Z,76.90
2018-06-21T04:38:52.332Z,77.00
2018-06-21T04:41:21.020Z,77.00
2018-06-21T04:43:48.704Z,77.00
2018-06-21T04:46:16.391Z,77.10
2018-06-21T04:48:45.135Z,76.90
2018-06-21T04:51:12.863Z,76.60
2018-06-21T04:53:40.533Z,76.50
2018-06-21T04:56:09.257Z,76.50
2018-06-21T04:58:36.951Z,76.50
2018-06-21T05:01:04.645Z,76.50
2018-06-21T05:06:00.786Z,76.00
2018-06-21T05:08:28.467Z,75.70
2018-06-21T05:10:56.200Z,75.60
2018-06-21T05:13:23.873Z,75.60
2018-06-21T05:15:52.630Z,75.50
2018-06-21T05:18:20.341Z,75.50
2018-06-21T05:20:49.110Z,75.50
2018-06-21T05:23:17.842Z,75.60
2018-06-21T05:25:45.580Z,75.60
2018-06-21T05:30:40.736Z,75.70
2018-06-21T05:33:09.298Z,75.70
2018-06-21T05:35:37.021Z,75.70
2018-06-21T05:38:04.713Z,75.80
2018-06-21T05:40:33.574Z,75.80
2018-06-21T05:45:29.708Z,75.90
2018-06-21T05:47:59.932Z,75.90
2018-06-21T05:50:28.124Z,75.90
2018-06-21T05:52:56.677Z,75.90
2018-06-21T05:55:24.363Z,75.80
2018-06-21T05:57:52.058Z,76.00
2018-06-21T06:00:19.738Z,76.00
2018-06-21T06:02:47.449Z,75.70
2018-06-21T06:05:15.137Z,75.90
2018-06-21T06:07:42.878Z,76.00
2018-06-21T06:10:10.657Z,76.00
2018-06-21T06:12:38.287Z,76.00
2018-06-21T06:15:05.976Z,75.90
2018-06-21T06:17:33.669Z,76.10
2018-06-21T06:20:02.979Z,75.80
2018-06-21T06:22:30.702Z,76.00
2018-06-21T06:24:58.385Z,76.00
2018-06-21T06:27:26.077Z,76.00
2018-06-21T06:29:54.794Z,76.30
2018-06-21T06:32:22.492Z,76.00
2018-06-21T06:34:50.180Z,76.00
2018-06-21T06:37:17.894Z,76.10
2018-06-21T06:39:45.598Z,76.20
2018-06-21T06:42:13.302Z,76.00
2018-06-21T06:44:41.083Z,75.90
2018-06-21T06:47:08.879Z,76.00
2018-06-21T06:49:36.616Z,76.20
2018-06-21T06:54:31.800Z,76.00
2018-06-21T06:57:00.489Z,76.00
2018-06-21T06:59:28.166Z,76.70
2018-06-21T07:01:55.877Z,76.20
2018-06-21T07:04:23.559Z,75.90
2018-06-21T07:06:51.277Z,76.10
2018-06-21T07:09:18.966Z,76.60
2018-06-21T07:11:46.673Z,76.30
2018-06-21T07:14:14.430Z,76.20
2018-06-21T07:16:42.109Z,75.80
2018-06-21T07:19:09.797Z,76.10
2018-06-21T07:21:38.704Z,75.90
2018-06-21T07:24:06.441Z,76.20
2018-06-21T07:26:34.183Z,76.20
2018-06-21T07:29:01.913Z,76.30
2018-06-21T07:31:29.902Z,76.30
2018-06-21T07:33:57.580Z,76.30
2018-06-21T07:36:25.284Z,76.20
2018-06-21T07:38:52.989Z,76.10
2018-06-21T07:41:20.685Z,76.30
2018-06-21T07:43:48.372Z,76.30
2018-06-21T07:46:16.126Z,76.20
2018-06-21T07:48:43.815Z,76.10
2018-06-21T07:51:11.555Z,76.00
2018-06-21T07:53:39.262Z,76.10
2018-06-21T07:56:07.954Z,75.60
2018-06-21T07:58:35.640Z,76.10
2018-06-21T08:01:03.324Z,76.10
2018-06-21T08:03:31.523Z,75.80
2018-06-21T08:05:59.315Z,75.90
2018-06-21T08:08:27.004Z,76.10
2018-06-21T08:10:54.702Z,76.10
2018-06-21T08:13:22.414Z,75.90
2018-06-21T08:15:50.133Z,76.00
2018-06-21T08:18:17.826Z,76.00
2018-06-21T08:20:45.612Z,76.20
2018-06-21T08:23:13.315Z,76.20
2018-06-21T08:25:41.077Z,76.20
2018-06-21T08:28:08.825Z,76.20
2018-06-21T08:30:36.809Z,76.00
2018-06-21T08:33:04.594Z,75.90
2018-06-21T08:35:32.319Z,76.00
2018-06-21T08:38:00.020Z,76.10
2018-06-21T08:40:27.721Z,76.20
2018-06-21T08:42:55.732Z,76.30
2018-06-21T08:45:23.469Z,76.30
2018-06-21T08:47:51.198Z,76.30
2018-06-21T08:50:19.929Z,76.20
2018-06-21T08:52:47.629Z,76.80
2018-06-21T08:55:15.330Z,76.00
2018-06-21T08:57:43.031Z,76.20
2018-06-21T09:00:10.765Z,76.20
2018-06-21T09:02:38.490Z,76.20
2018-06-21T09:05:06.261Z,76.30
2018-06-21T09:07:34.021Z,76.20
2018-06-21T09:10:01.756Z,76.00
2018-06-21T09:12:33.381Z,76.00
2018-06-21T09:15:01.416Z,76.20
2018-06-21T09:17:30.184Z,76.30
2018-06-21T09:19:57.869Z,76.40
2018-06-21T09:22:25.624Z,76.20
2018-06-21T09:24:53.381Z,76.10
2018-06-21T09:27:21.068Z,76.30
2018-06-21T09:29:49.820Z,76.30
2018-06-21T09:32:17.571Z,76.30
2018-06-21T09:34:45.253Z,76.30
2018-06-21T09:37:13.871Z,76.30
2018-06-21T09:39:47.128Z,76.30
2018-06-21T09:43:23.928Z,76.50
2018-06-21T09:45:57.013Z,76.20
2018-06-21T09:48:31.143Z,76.20
2018-06-21T09:51:00.728Z,76.10
2018-06-21T09:53:29.036Z,76.30
2018-06-21T09:55:57.176Z,76.20
2018-06-21T09:58:24.989Z,76.20
2018-06-21T10:00:58.120Z,76.20
2018-06-21T10:03:25.867Z,76.20
2018-06-21T10:05:53.596Z,76.00
2018-06-21T10:08:22.238Z,75.90
2018-06-21T10:10:49.957Z,76.00
2018-06-21T10:13:18.695Z,76.00
2018-06-21T10:15:46.512Z,76.00
2018-06-21T10:18:14.210Z,76.80
2018-06-21T10:20:42.054Z,76.00
2018-06-21T10:23:10.916Z,75.90
2018-06-21T10:25:38.679Z,75.80
2018-06-21T10:28:07.385Z,75.90
2018-06-21T10:30:37.319Z,75.70
2018-06-21T10:33:07.350Z,75.70
2018-06-21T10:35:35.227Z,75.70
2018-06-21T10:38:02.980Z,75.60
2018-06-21T10:40:30.706Z,75.80
2018-06-21T10:42:58.426Z,75.80
2018-06-21T10:45:26.120Z,75.80
2018-06-21T10:47:53.826Z,75.70
2018-06-21T10:50:21.529Z,75.70
2018-06-21T10:52:49.252Z,75.60
2018-06-21T10:55:16.981Z,75.70
2018-06-21T10:57:44.716Z,75.80
2018-06-21T11:00:12.430Z,75.70
2018-06-21T11:05:07.945Z,75.70
2018-06-21T11:07:35.653Z,75.60
2018-06-21T11:10:03.351Z,75.60
2018-06-21T11:12:31.083Z,75.60
2018-06-21T11:14:58.785Z,75.60
2018-06-21T11:17:26.532Z,75.50
2018-06-21T11:19:54.247Z,75.70
2018-06-21T11:22:21.968Z,75.80
2018-06-21T11:24:49.666Z,75.80
2018-06-21T11:27:17.385Z,76.00
2018-06-21T11:29:45.987Z,76.10
2018-06-21T11:32:13.725Z,76.30
2018-06-21T11:34:41.450Z,76.30
2018-06-21T11:37:09.158Z,76.60
2018-06-21T11:39:37.894Z,76.50
2018-06-21T11:42:14.427Z,76.70
2018-06-21T11:44:42.149Z,76.60
2018-06-21T11:47:09.865Z,76.60
2018-06-21T11:49:37.561Z,76.50
2018-06-21T11:52:06.262Z,76.50
2018-06-21T11:54:35.030Z,76.50
2018-06-21T11:57:03.094Z,76.40
2018-06-21T11:59:30.837Z,76.50
2018-06-21T12:01:59.473Z,77.50
2018-06-21T12:04:28.173Z,76.80
2018-06-21T12:06:55.877Z,76.40
2018-06-21T12:09:24.455Z,75.70
2018-06-21T12:11:53.213Z,75.30
2018-06-21T12:14:21.778Z,75.20
2018-06-21T12:16:50.520Z,75.10
2018-06-21T12:19:19.086Z,74.80
2018-06-21T12:21:46.781Z,74.70
2018-06-21T12:24:14.474Z,74.40
2018-06-21T12:26:42.169Z,74.30
2018-06-21T12:29:09.890Z,74.20
2018-06-21T12:31:38.638Z,74.10
2018-06-21T12:34:07.378Z,74.10
2018-06-21T12:36:35.997Z,74.10
2018-06-21T12:39:06.506Z,74.10
2018-06-21T12:41:34.742Z,74.10
2018-06-21T12:44:02.471Z,74.00
2018-06-21T12:46:31.177Z,74.10
2018-06-21T12:51:28.118Z,74.20
2018-06-21T12:53:56.872Z,74.20
2018-06-21T12:56:25.596Z,74.30
2018-06-21T12:58:54.245Z,74.30
2018-06-21T13:01:22.979Z,74.50
2018-06-21T13:03:51.614Z,74.40
2018-06-21T13:06:20.280Z,74.50
2018-06-21T13:08:53.780Z,74.50
2018-06-21T13:11:33.954Z,74.50
2018-06-21T13:16:30.001Z,74.30
2018-06-21T13:18:57.810Z,74.30
2018-06-21T13:21:25.563Z,74.20
2018-06-21T13:23:54.158Z,74.70
2018-06-21T13:26:21.882Z,74.60
2018-06-21T13:28:49.600Z,74.30
2018-06-21T13:31:17.318Z,74.50
2018-06-21T13:33:46.047Z,74.50
2018-06-21T13:36:13.766Z,74.00
2018-06-21T13:38:42.516Z,74.40
2018-06-21T13:41:11.123Z,74.30
2018-06-21T13:43:38.838Z,74.80
2018-06-21T13:46:06.590Z,74.50
2018-06-21T13:48:35.240Z,74.70
2018-06-21T13:51:02.935Z,74.60
2018-06-21T13:53:31.530Z,74.20
2018-06-21T13:55:59.219Z,74.30
2018-06-21T13:58:26.926Z,74.30
2018-06-21T14:00:54.636Z,74.60
2018-06-21T14:03:23.237Z,74.30
2018-06-21T14:05:52.006Z,74.30
2018-06-21T14:08:19.842Z,74.50
2018-06-21T14:10:47.485Z,74.30
2018-06-21T14:13:15.241Z,74.50
2018-06-21T14:15:42.933Z,74.00
2018-06-21T14:18:10.646Z,74.40
2018-06-21T14:20:38.455Z,74.60
2018-06-21T14:23:07.042Z,74.30
2018-06-21T14:25:34.725Z,74.60
2018-06-21T14:28:03.419Z,74.50
2018-06-21T14:30:32.146Z,74.40
2018-06-21T14:32:59.854Z,74.50
2018-06-21T14:35:28.190Z,74.70
2018-06-21T14:37:55.900Z,74.50
2018-06-21T14:40:23.634Z,74.40
2018-06-21T14:42:51.333Z,74.40
2018-06-21T14:45:19.029Z,74.40
2018-06-21T14:47:46.811Z,74.50
2018-06-21T14:50:14.480Z,74.60
2018-06-21T14:52:42.196Z,74.30
2018-06-21T14:55:09.936Z,74.20
2018-06-21T14:57:37.676Z,74.00
2018-06-21T15:00:05.370Z,74.00
2018-06-21T15:02:33.109Z,74.00
2018-06-21T15:05:00.819Z,73.70
2018-06-21T15:07:28.625Z,73.90
2018-06-21T15:09:56.329Z,74.00
2018-06-21T15:12:24.024Z,73.80
2018-06-21T15:14:51.736Z,73.80
2018-06-21T15:17:19.488Z,74.00
2018-06-21T15:19:47.168Z,74.00
2018-06-21T15:22:15.762Z,74.00
2018-06-21T15:24:43.468Z,74.10
2018-06-21T15:27:11.184Z,74.00
2018-06-21T15:29:38.897Z,74.10
2018-06-21T15:34:34.060Z,73.90
2018-06-21T15:37:01.757Z,74.20
2018-06-21T15:39:29.470Z,74.10
2018-06-21T15:41:57.200Z,73.90
2018-06-21T15:44:24.888Z,74.00
2018-06-21T15:49:26.684Z,74.00
2018-06-21T15:51:54.384Z,73.70
2018-06-21T15:54:22.100Z,73.40
2018-06-21T15:56:50.791Z,73.40
2018-06-21T15:59:18.481Z,73.70
2018-06-21T16:01:46.195Z,73.40
2018-06-21T16:04:13.888Z,74.00
2018-06-21T16:09:10.078Z,73.70
2018-06-21T16:11:38.062Z,73.60
2018-06-21T16:14:05.776Z,73.50
2018-06-21T16:16:33.508Z,73.30
2018-06-21T16:19:01.310Z,73.30
2018-06-21T16:21:29.027Z,73.50
2018-06-21T16:23:57.857Z,73.20
2018-06-21T16:26:25.714Z,73.30
2018-06-21T16:31:20.849Z,73.70
2018-06-21T16:33:48.549Z,73.20
2018-06-21T16:36:16.235Z,73.20
2018-06-21T16:38:44.038Z,73.30
2018-06-21T16:41:11.745Z,73.80
2018-06-21T16:43:39.444Z,73.10
2018-06-21T16:46:08.161Z,72.90
2018-06-21T16:48:36.768Z,72.80
2018-06-21T16:53:31.967Z,72.80
2018-06-21T16:55:59.671Z,73.30
2018-06-21T16:58:27.382Z,73.30
2018-06-21T17:00:55.117Z,73.10
2018-06-21T17:03:23.150Z,73.10
2018-06-21T17:05:51.069Z,73.00
2018-06-21T17:08:18.790Z,73.20
2018-06-21T17:10:46.494Z,73.10
2018-06-21T17:13:14.289Z,73.20
2018-06-21T17:15:42.336Z,73.40
2018-06-21T17:18:11.063Z,73.80
2018-06-21T17:20:39.801Z,73.30
2018-06-21T17:23:08.523Z,73.50
2018-06-21T17:25:36.472Z,73.20
2018-06-21T17:28:04.220Z,73.50
2018-06-21T17:30:31.920Z,73.50
2018-06-21T17:32:59.669Z,73.40
2018-06-21T17:35:27.392Z,73.30
2018-06-21T17:37:55.081Z,73.30
2018-06-21T17:40:22.777Z,73.20
2018-06-21T17:42:50.484Z,73.80
2018-06-21T17:45:18.263Z,73.90
2018-06-21T17:47:45.937Z,73.50
2018-06-21T17:50:13.630Z,73.60
2018-06-21T17:52:41.353Z,73.50
2018-06-21T17:55:09.049Z,73.20
2018-06-21T17:57:36.744Z,73.60
2018-06-21T18:00:04.445Z,73.70
2018-06-21T18:02:32.161Z,73.20
2018-06-21T18:05:00.908Z,73.40
2018-06-21T18:07:29.612Z,73.30
2018-06-21T18:09:58.372Z,72.90
2018-06-21T18:12:26.088Z,73.30
2018-06-21T18:14:54.671Z,73.60
2018-06-21T18:17:22.392Z,74.10
2018-06-21T18:19:50.100Z,72.80
2018-06-21T18:22:17.798Z,73.20
2018-06-21T18:24:45.565Z,73.30
2018-06-21T18:27:14.262Z,72.70
2018-06-21T18:29:42.026Z,72.80
2018-06-21T18:32:10.833Z,73.30
2018-06-21T18:34:38.534Z,73.30
2018-06-21T18:37:06.231Z,73.40
2018-06-21T18:39:33.941Z,73.30
2018-06-21T18:42:01.705Z,73.50
2018-06-21T18:44:29.421Z,73.30
2018-06-21T18:46:57.168Z,73.20
2018-06-21T18:49:24.873Z,72.10
2018-06-21T18:51:52.606Z,72.50
2018-06-21T18:54:21.219Z,72.00
2018-06-21T18:56:49.755Z,72.30
2018-06-21T18:59:17.450Z,72.30
2018-06-21T19:01:45.161Z,72.50
2018-06-21T19:04:13.889Z,72.60
2018-06-21T19:06:48.162Z,72.70
2018-06-21T19:09:22.423Z,72.90
2018-06-21T19:12:00.420Z,72.80
2018-06-21T19:14:28.379Z,72.70
2018-06-21T19:16:56.140Z,72.20
2018-06-21T19:19:24.885Z,72.30
2018-06-21T19:21:53.090Z,71.80
2018-06-21T19:24:20.790Z,72.00
2018-06-21T19:26:48.529Z,72.10
2018-06-21T19:29:16.269Z,72.30
2018-06-21T19:31:43.977Z,72.70
2018-06-21T19:34:11.671Z,72.80
2018-06-21T19:36:40.279Z,72.60
2018-06-21T19:39:08.784Z,72.10
2018-06-21T19:41:37.989Z,72.30
2018-06-21T19:44:07.001Z,72.00
2018-06-21T19:46:34.693Z,71.50
2018-06-21T19:49:02.446Z,71.40
2018-06-21T19:51:30.164Z,71.70
2018-06-21T19:53:58.747Z,72.50
2018-06-21T19:56:26.459Z,71.70
2018-06-21T19:58:54.252Z,71.50
2018-06-21T20:01:22.854Z,71.70
2018-06-21T20:03:50.541Z,71.80
2018-06-21T20:06:18.283Z,71.60
2018-06-21T20:08:45.979Z,71.40
2018-06-21T20:11:19.172Z,71.40
2018-06-21T20:13:48.057Z,71.40
2018-06-21T20:16:16.194Z,71.20
2018-06-21T20:18:43.924Z,71.00
2018-06-21T20:21:13.669Z,71.20
2018-06-21T20:23:43.826Z,71.20
2018-06-21T20:26:11.965Z,70.70
2018-06-21T20:28:40.946Z,70.90
2018-06-21T20:31:10.207Z,71.00
2018-06-21T20:33:37.926Z,71.10
2018-06-21T20:36:05.695Z,71.20
2018-06-21T20:38:33.721Z,71.00
2018-06-21T20:41:01.652Z,71.20
2018-06-21T20:43:29.576Z,71.10
2018-06-21T20:45:58.378Z,71.30
2018-06-21T20:48:26.141Z,70.70
2018-06-21T20:50:53.841Z,71.10
2018-06-21T20:53:23.729Z,70.90
2018-06-21T20:55:51.632Z,70.70
2018-06-21T20:58:19.609Z,70.50
2018-06-21T21:00:47.358Z,70.70
2018-06-21T21:03:20.996Z,70.40
2018-06-21T21:05:48.787Z,70.60
2018-06-21T21:08:16.568Z,70.70
2018-06-21T21:10:44.307Z,70.70
2018-06-21T21:13:12.017Z,70.90
2018-06-21T21:15:39.754Z,70.50
2018-06-21T21:18:07.482Z,70.70
2018-06-21T21:23:02.785Z,71.60
2018-06-21T21:25:30.592Z,70.90
2018-06-21T21:27:58.324Z,70.80
2018-06-21T21:30:26.047Z,70.80
2018-06-21T21:32:53.805Z,70.80
2018-06-21T21:35:22.511Z,70.60
2018-06-21T21:37:52.720Z,70.50
2018-06-21T21:40:21.518Z,70.60
2018-06-21T21:42:50.259Z,70.80
2018-06-21T21:45:19.040Z,70.80
2018-06-21T21:47:47.608Z,70.10
2018-06-21T21:50:15.374Z,70.60
2018-06-21T21:52:43.141Z,70.50
2018-06-21T21:55:10.896Z,70.30
2018-06-21T21:57:39.664Z,70.60
2018-06-21T22:00:41.760Z,70.70
2018-06-21T22:03:10.502Z,70.50
2018-06-21T22:05:39.151Z,70.50
2018-06-21T22:08:07.897Z,70.50
2018-06-21T22:10:36.660Z,70.80
2018-06-21T22:13:04.394Z,71.10
2018-06-21T22:15:32.114Z,70.50
2018-06-21T22:18:00.789Z,70.70
2018-06-21T22:20:29.525Z,71.10
2018-06-21T22:22:58.995Z,70.80
2018-06-21T22:25:28.129Z,70.10
2018-06-21T22:27:57.255Z,69.90
2018-06-21T22:30:26.005Z,69.60
2018-06-21T22:32:55.004Z,69.30
2018-06-21T22:35:24.430Z,68.90
2018-06-21T22:37:52.362Z,69.00
2018-06-21T22:40:20.214Z,69.00
2018-06-21T22:42:47.948Z,68.40
2018-06-21T22:47:43.121Z,69.00
2018-06-21T22:50:10.971Z,68.90
2018-06-21T22:52:40.055Z,68.90
2018-06-21T22:55:07.815Z,69.20
2018-06-21T22:57:36.615Z,69.20
2018-06-21T23:00:06.804Z,69.10
2018-06-21T23:02:35.553Z,69.10
2018-06-21T23:05:03.264Z,69.20
2018-06-21T23:07:31.003Z,69.20
2018-06-21T23:09:58.746Z,69.10
2018-06-21T23:12:27.339Z,69.30
2018-06-21T23:14:55.088Z,69.10
2018-06-21T23:17:22.851Z,69.40
2018-06-21T23:22:18.074Z,69.30
2018-06-21T23:24:46.716Z,69.20
2018-06-21T23:27:15.323Z,69.20
2018-06-21T23:29:44.045Z,69.30
2018-06-21T23:34:41.491Z,69.30
2018-06-21T23:37:10.165Z,69.30
2018-06-21T23:39:38.781Z,69.20
2018-06-21T23:42:07.531Z,69.60
2018-06-21T23:44:36.284Z,69.80
2018-06-21T23:47:04.014Z,69.70
2018-06-21T23:49:34.254Z,69.50
2018-06-21T23:52:02.057Z,69.60
2018-06-21T23:54:30.264Z,69.50
2018-06-21T23:56:58.993Z,69.80
2018-06-21T23:59:26.748Z,70.00
